createdAt,value
2019-04-28T00:03:53.653Z,87.10
2019-04-28T00:09:01.620Z,87.20
2019-04-28T00:14:08.498Z,87.10
2019-04-28T00:19:14.656Z,87.10
2019-04-28T00:24:34.537Z,87.10
2019-04-28T00:29:45.567Z,87.10
2019-04-28T00:34:48.143Z,87.20
2019-04-28T00:39:54.113Z,87.50
2019-04-28T00:45:01.677Z,88.20
2019-04-28T00:50:07.745Z,87.50
2019-04-28T00:55:13.893Z,87.40
2019-04-28T01:00:23.101Z,87.40
2019-04-28T01:05:29.029Z,87.30
2019-04-28T01:10:35.052Z,87.40
2019-04-28T01:16:11.973Z,87.10
2019-04-28T01:21:17.873Z,87.20
2019-04-28T01:26:23.800Z,87.10
2019-04-28T01:31:40.906Z,86.80
2019-04-28T01:36:46.834Z,87.50
2019-04-28T01:41:52.710Z,86.70
2019-04-28T01:46:59.516Z,87.00
2019-04-28T01:52:06.094Z,88.10
2019-04-28T01:57:11.953Z,89.10
2019-04-28T02:02:19.777Z,89.60
2019-04-28T02:07:25.842Z,90.20
2019-04-28T02:12:31.511Z,90.40
2019-04-28T02:17:37.480Z,90.50
2019-04-28T02:22:57.426Z,90.80
2019-04-28T02:28:03.589Z,90.70
2019-04-28T02:33:11.138Z,91.40
2019-04-28T02:38:17.062Z,91.60
2019-04-28T02:43:22.946Z,91.50
2019-04-28T02:48:30.973Z,91.30
2019-04-28T02:53:40.911Z,91.10
2019-04-28T02:58:46.779Z,91.30
2019-04-28T03:03:52.754Z,91.30
2019-04-28T03:09:00.274Z,91.50
2019-04-28T03:14:06.442Z,91.10
2019-04-28T03:19:12.314Z,90.90
2019-04-28T03:24:18.167Z,90.90
2019-04-28T03:29:36.757Z,90.80
2019-04-28T03:34:44.747Z,90.90
2019-04-28T03:39:50.771Z,90.60
2019-04-28T03:45:00.847Z,90.40
2019-04-28T03:50:06.436Z,90.40
2019-04-28T03:55:12.464Z,90.40
2019-04-28T04:00:18.447Z,90.40
2019-04-28T04:05:24.230Z,90.20
2019-04-28T04:10:37.195Z,90.10
2019-04-28T04:16:01.666Z,90.20
2019-04-28T04:21:11.110Z,90.10
2019-04-28T04:26:16.687Z,89.90
2019-04-28T04:31:22.779Z,90.00
2019-04-28T04:36:31.034Z,90.00
2019-04-28T04:41:36.452Z,90.00
2019-04-28T04:46:42.633Z,90.00
2019-04-28T04:51:50.863Z,90.10
2019-04-28T04:56:55.827Z,90.00
2019-04-28T05:02:30.619Z,90.40
2019-04-28T05:07:34.798Z,90.30
2019-04-28T05:12:40.927Z,90.40
2019-04-28T05:17:46.923Z,91.00
2019-04-28T05:23:00.685Z,91.70
2019-04-28T05:28:06.658Z,92.30
2019-04-28T05:33:30.722Z,91.90
2019-04-28T05:38:34.218Z,91.90
2019-04-28T05:43:40.520Z,91.80
2019-04-28T05:48:56.563Z,91.70
2019-04-28T05:54:15.255Z,92.00
2019-04-28T06:00:03.382Z,91.60
2019-04-28T06:05:10.156Z,91.60
2019-04-28T06:10:16.392Z,91.60
2019-04-28T06:15:22.330Z,91.60
2019-04-28T06:20:30.345Z,91.70
2019-04-28T06:25:37.922Z,91.80
2019-04-28T06:30:43.743Z,92.20
2019-04-28T06:35:49.523Z,92.00
2019-04-28T06:40:55.300Z,92.20
2019-04-28T06:46:01.296Z,92.10
2019-04-28T06:51:07.257Z,92.20
2019-04-28T06:56:13.276Z,92.60
2019-04-28T07:01:19.324Z,92.60
2019-04-28T07:06:25.483Z,92.40
2019-04-28T07:11:31.405Z,92.30
2019-04-28T07:16:37.269Z,92.40
2019-04-28T07:21:49.294Z,92.50
2019-04-28T07:26:55.500Z,92.70
2019-04-28T07:32:02.385Z,92.30
2019-04-28T07:37:08.426Z,92.20
2019-04-28T07:42:14.364Z,92.10
2019-04-28T07:47:21.427Z,91.90
2019-04-28T07:52:33.476Z,93.50
2019-04-28T07:57:39.345Z,91.40
2019-04-28T08:02:45.328Z,91.60
2019-04-28T08:07:51.443Z,91.90
2019-04-28T08:12:57.380Z,92.00
2019-04-28T08:18:03.672Z,92.00
2019-04-28T08:23:09.731Z,92.10
2019-04-28T08:28:15.816Z,92.10
2019-04-28T08:33:35.998Z,92.20
2019-04-28T08:38:42.030Z,92.20
2019-04-28T08:43:47.868Z,92.00
2019-04-28T08:48:53.723Z,92.40
2019-04-28T08:53:59.713Z,92.10
2019-04-28T08:59:06.622Z,92.00
2019-04-28T09:04:15.501Z,92.50
2019-04-28T09:09:21.452Z,92.20
2019-04-28T09:14:27.404Z,91.90
2019-04-28T09:19:33.446Z,91.50
2019-04-28T09:24:40.173Z,91.50
2019-04-28T09:29:46.154Z,91.30
2019-04-28T09:34:52.131Z,91.40
2019-04-28T09:40:06.332Z,91.40
2019-04-28T09:45:17.820Z,90.90
2019-04-28T09:50:24.004Z,90.50
2019-04-28T09:55:30.321Z,90.00
2019-04-28T10:00:37.831Z,88.70
2019-04-28T10:05:43.750Z,87.10
2019-04-28T10:10:49.752Z,86.30
2019-04-28T10:15:55.610Z,85.70
2019-04-28T10:21:01.807Z,85.60
2019-04-28T10:26:07.860Z,86.00
2019-04-28T10:36:19.481Z,84.00
2019-04-28T10:41:33.578Z,84.70
2019-04-28T10:46:39.405Z,84.70
2019-04-28T10:51:49.100Z,84.30
2019-04-28T10:56:52.787Z,85.40
2019-04-28T11:01:58.740Z,85.40
2019-04-28T11:07:04.976Z,84.30
2019-04-28T11:12:15.071Z,83.70
2019-04-28T11:17:22.093Z,81.80
2019-04-28T11:22:28.197Z,79.90
2019-04-28T11:27:34.179Z,79.70
2019-04-28T11:32:42.812Z,78.00
2019-04-28T11:37:48.932Z,77.70
2019-04-28T11:42:55.901Z,76.80
2019-04-28T11:48:01.863Z,77.10
2019-04-28T11:53:07.840Z,77.00
2019-04-28T11:58:13.835Z,77.20
2019-04-28T12:03:19.984Z,77.80
2019-04-28T12:08:25.960Z,79.10
2019-04-28T12:13:48.720Z,80.00
2019-04-28T12:19:17.877Z,80.20
2019-04-28T12:24:23.818Z,79.90
2019-04-28T12:29:29.794Z,79.40
2019-04-28T12:34:35.807Z,79.00
2019-04-28T12:39:41.802Z,79.10
2019-04-28T12:44:47.718Z,78.50
2019-04-28T12:50:12.582Z,77.50
2019-04-28T12:55:18.738Z,77.20
2019-04-28T13:00:46.310Z,77.40
2019-04-28T13:06:02.398Z,75.80
2019-04-28T13:11:00.430Z,75.50
2019-04-28T13:16:06.588Z,75.50
2019-04-28T13:21:14.206Z,75.60
2019-04-28T13:26:20.065Z,75.30
2019-04-28T13:31:26.037Z,75.10
2019-04-28T13:36:32.025Z,75.00
2019-04-28T13:41:38.231Z,75.30
2019-04-28T13:46:44.154Z,75.60
2019-04-28T13:51:50.113Z,75.80
2019-04-28T13:56:56.156Z,75.90
2019-04-28T14:02:10.850Z,77.00
2019-04-28T14:07:18.191Z,78.10
2019-04-28T14:12:24.199Z,78.80
2019-04-28T14:17:30.235Z,78.80
2019-04-28T14:22:36.208Z,78.20
2019-04-28T14:27:42.186Z,78.00
2019-04-28T14:32:48.240Z,78.20
2019-04-28T14:37:54.535Z,78.40
2019-04-28T14:43:00.546Z,78.90
2019-04-28T14:48:07.316Z,78.50
2019-04-28T14:53:13.376Z,77.00
2019-04-28T14:58:19.433Z,76.60
2019-04-28T15:03:26.873Z,76.60
2019-04-28T15:08:50.462Z,75.90
2019-04-28T15:13:56.506Z,75.60
2019-04-28T15:19:02.674Z,75.00
2019-04-28T15:24:08.729Z,75.20
2019-04-28T15:29:14.885Z,75.50
2019-04-28T15:34:20.844Z,75.90
2019-04-28T15:39:26.833Z,75.40
2019-04-28T15:44:32.716Z,75.40
2019-04-28T15:49:38.770Z,75.50
2019-04-28T15:54:44.894Z,75.40
2019-04-28T15:59:50.919Z,75.60
2019-04-28T16:04:56.910Z,76.00
2019-04-28T16:10:02.978Z,76.00
2019-04-28T16:15:09.244Z,76.30
2019-04-28T16:20:15.417Z,77.50
2019-04-28T16:25:21.359Z,77.00
2019-04-28T16:30:27.267Z,76.60
2019-04-28T16:35:33.191Z,76.20
2019-04-28T16:40:40.857Z,75.80
2019-04-28T16:45:47.201Z,76.00
2019-04-28T16:50:53.234Z,76.50
2019-04-28T16:56:30.470Z,76.70
2019-04-28T17:02:04.249Z,76.80
2019-04-28T17:07:10.339Z,77.30
2019-04-28T17:12:17.224Z,77.70
2019-04-28T17:17:24.260Z,77.50
2019-04-28T17:22:30.439Z,77.70
2019-04-28T17:27:36.620Z,77.90
2019-04-28T17:32:43.030Z,78.00
2019-04-28T17:37:48.928Z,78.00
2019-04-28T17:42:55.044Z,77.00
2019-04-28T17:48:07.372Z,76.70
2019-04-28T17:53:13.358Z,76.70
2019-04-28T17:58:19.438Z,77.60
2019-04-28T18:03:41.251Z,78.10
2019-04-28T18:08:47.354Z,78.60
2019-04-28T18:13:53.336Z,78.80
2019-04-28T18:19:05.996Z,79.20
2019-04-28T18:24:12.027Z,80.50
2019-04-28T18:29:18.134Z,79.90
2019-04-28T18:34:55.426Z,80.40
2019-04-28T18:40:24.564Z,80.80
2019-04-28T18:45:30.625Z,80.90
2019-04-28T18:50:36.961Z,81.20
2019-04-28T18:55:42.888Z,81.40
2019-04-28T19:01:07.615Z,81.70
2019-04-28T19:06:13.523Z,82.20
2019-04-28T19:11:31.900Z,82.60
2019-04-28T19:16:56.526Z,83.50
2019-04-28T19:22:02.614Z,84.40
2019-04-28T19:27:08.806Z,85.30
2019-04-28T19:32:35.330Z,85.60
2019-04-28T19:37:47.419Z,86.00
2019-04-28T19:43:16.090Z,86.40
2019-04-28T19:48:30.481Z,87.20
2019-04-28T19:53:37.797Z,87.20
2019-04-28T19:58:48.922Z,87.50
2019-04-28T20:03:55.013Z,87.50
2019-04-28T20:09:00.983Z,88.10
2019-04-28T20:14:07.097Z,88.00
2019-04-28T20:19:13.266Z,88.40
2019-04-28T20:24:19.633Z,88.70
2019-04-28T20:29:25.710Z,90.10
2019-04-28T20:34:31.798Z,90.40
2019-04-28T20:39:37.966Z,90.20
2019-04-28T20:44:44.034Z,90.30
2019-04-28T20:49:50.134Z,90.30
2019-04-28T20:54:56.221Z,90.30
2019-04-28T21:00:02.350Z,90.30
2019-04-28T21:05:08.460Z,90.40
2019-04-28T21:10:15.703Z,90.60
2019-04-28T21:15:21.636Z,90.60
2019-04-28T21:20:27.669Z,90.60
2019-04-28T21:25:33.820Z,90.80
2019-04-28T21:30:39.720Z,91.00
2019-04-28T21:35:45.738Z,91.10
2019-04-28T21:40:52.119Z,91.30
2019-04-28T21:46:13.626Z,91.20
2019-04-28T21:51:19.671Z,91.90
2019-04-28T21:56:25.694Z,92.50
2019-04-28T22:01:31.954Z,92.30
2019-04-28T22:06:38.048Z,92.40
2019-04-28T22:11:43.699Z,92.40
2019-04-28T22:16:49.810Z,92.40
2019-04-28T22:21:55.639Z,92.40
2019-04-28T22:27:02.088Z,92.40
2019-04-28T22:32:08.020Z,92.40
2019-04-28T22:37:14.339Z,92.50
2019-04-28T22:42:20.480Z,92.50
2019-04-28T22:47:26.559Z,92.40
2019-04-28T22:52:32.521Z,92.40
2019-04-28T22:58:06.616Z,92.40
2019-04-28T23:03:17.699Z,92.40
2019-04-28T23:08:23.769Z,92.40
2019-04-28T23:13:30.033Z,92.40
2019-04-28T23:18:36.215Z,92.40
2019-04-28T23:23:42.262Z,92.40
2019-04-28T23:28:48.380Z,92.50
2019-04-28T23:33:54.309Z,92.50
2019-04-28T23:39:00.389Z,92.50
2019-04-28T23:44:06.557Z,92.80
2019-04-28T23:49:12.430Z,92.30
2019-04-28T23:54:18.521Z,92.30
2019-04-28T23:59:24.410Z,92.70
